Omerville, Canada
Current Conditions -  °F | °C
As of 3:00 AM on Friday 24 Oct 2014 (Local Time) from CYSC Reporting Station
Overcast Overcast  
Wind Chill:   Ceiling: 600
Heat Index:   Visibility: 9mi
Dew Point:   Wind: 7mph
Humidity: 93%   Direction: 50°NE
Pressure: 29.81"   Gusts: NA
Location:  45.28°N, 72.12°W
Report Text: CYSC 240700Z AUTO 05006KT 350V080 9SM OVC006 06/05 A2981 RMK SLP101
Loading
Personal Weather Stations






























Interactive Weather Map
Tropical Storm Tracking
New forecast layout! Learn more

10-Day Weather Forecast

Advertisements
Track Severe Weather on mobile